Hlavní strana
METAR-TAF:

METAR-TAF

Letiště :

Thomson-McDuffie County Airport

Thomson, Georgie, Spojené státy americké

zeměpisná šířka: 33-31-46N, zeměpisná délka: 082-30-59W, výška: 152 m

Aktuální stav počasí

Zpráva byla vytvořena před 11 minutami, v 13:15 UTC
Jihojihovýchodní vítr 4 kt
Teplota 11°C
Vlhkost vzduchu 87%
Tlak 1026 hPa
Viditelnost: 16.1 km
Polojasno ve výšce 3700 ft
Polojasno ve výšce 5000 ft
Zataženo ve výšce 6500 ft

METAR: KHQU 251315Z AUTO 16004KT 10SM SCT037 SCT050 OVC065 11/09 A3029 RMK AO2 T01090090

Čas: 08:26 (13:26 UTC)


TAF: chybějící

Stav a předpovědi počasí z více než 4 000 letišť (zprávy METAR a TAF).

Červené a žluté tečky na mapě představují dostupné meteorologické stanice.

Když kurzor umístíte na tečku, zobrazí se název stanice.

Pak kliknutím zobrazíte stav a předpověď počasí.

Chcete-li změnit mapu, kliknutím na zelené tlačítko se znaménkem +mapu přiblížíte, kliknutím na zelené tlačítko se znaménkem – mapu oddálíte a kliknutím na zelené šipky přejdete na sousední mapy.


METAR-TAF: